Time;durP1;ratioP1;P1;durP2;ratioP2;P2;SDS_P1;SDS_P2;PMS_P1;PMS_P2;Temp;Humidity;BMP_temperature;BMP_pressure;BME280_temperature;BME280_humidity;BME280_pressure;Samples;Min_cycle;Max_cycle;Signal;HPM_P1;HPM_P2
2022/08/19 00:01:00;;;;;;;1.35;1.25;;;;;;;-145.06;100.00;60892.56;4836293;28;20068;-90
2022/08/19 00:03:39;;;;;;;1.42;1.33;;;;;;;-145.06;100.00;60892.56;4835367;28;20112;-88
2022/08/19 00:06:18;;;;;;;1.42;1.33;;;;;;;-145.06;100.00;60892.56;4830658;28;20046;-88
2022/08/19 00:08:59;;;;;;;1.08;1.00;;;;;;;-145.06;100.00;60892.56;4832697;28;20034;-88
2022/08/19 00:11:39;;;;;;;1.50;1.40;;;;;;;-145.06;100.00;60892.56;4832580;28;20030;-88
2022/08/19 00:14:20;;;;;;;1.60;1.27;;;;;;;-145.06;100.00;60892.56;4826798;28;20038;-89
2022/08/19 00:17:00;;;;;;;1.60;1.25;;;;;;;-145.06;100.00;60892.56;4860567;28;20120;-88
2022/08/19 00:19:40;;;;;;;1.30;1.20;;;;;;;-145.06;100.00;60892.56;4826058;28;20105;-89
2022/08/19 00:22:19;;;;;;;1.52;1.40;;;;;;;-145.06;100.00;60892.56;4833977;28;20365;-88
2022/08/19 00:24:58;;;;;;;1.38;1.23;;;;;;;-145.06;100.00;60892.56;4828788;28;20033;-88
2022/08/19 00:27:37;;;;;;;1.52;1.42;;;;;;;-145.06;100.00;60892.56;4829146;28;20045;-88
2022/08/19 00:30:16;;;;;;;1.80;1.30;;;;;;;-145.06;100.00;60892.56;4832389;28;20487;-88
2022/08/19 00:32:56;;;;;;;1.80;1.27;;;;;;;-145.06;100.00;60892.56;4832533;28;20368;-89
2022/08/19 00:35:38;;;;;;;;;;;;;;;-145.06;100.00;60892.56;4829490;28;20029;-89
2022/08/19 00:38:17;;;;;;;1.20;1.10;;;;;;;-145.06;100.00;60892.56;4834795;28;19913;-89
2022/08/19 00:40:56;;;;;;;1.20;1.10;;;;;;;-145.06;100.00;60892.56;4835073;28;20381;-89
2022/08/19 00:43:38;;;;;;;1.40;1.30;;;;;;;-145.06;100.00;60892.56;4828759;28;20030;-89
2022/08/19 00:46:18;;;;;;;1.40;1.23;;;;;;;-145.06;100.00;60892.56;4835577;28;20041;-88
2022/08/19 00:48:58;;;;;;;1.20;1.10;;;;;;;-145.06;100.00;60892.56;4835273;28;20042;-88
2022/08/19 00:51:37;;;;;;;1.52;1.20;;;;;;;-145.06;100.00;60892.56;4834042;28;20069;-88
2022/08/19 00:54:18;;;;;;;1.45;1.20;;;;;;;-145.06;100.00;60892.56;4837510;28;20034;-89
2022/08/19 00:56:59;;;;;;;1.50;1.33;;;;;;;-145.06;100.00;60892.56;4831566;28;20034;-89
2022/08/19 00:59:40;;;;;;;1.60;1.40;;;;;;;-145.06;100.00;60892.56;4828195;28;20045;-89
2022/08/19 01:02:20;;;;;;;1.50;1.40;;;;;;;-145.06;100.00;60892.56;4835604;28;20497;-88
2022/08/19 01:05:03;;;;;;;2.03;1.58;;;;;;;-145.06;100.00;60892.56;4833125;28;20030;-89
2022/08/19 01:07:43;;;;;;;1.55;1.42;;;;;;;-145.06;100.00;60892.56;4828835;28;20037;-88
2022/08/19 01:10:26;;;;;;;1.52;1.42;;;;;;;-145.06;100.00;60892.56;4831247;28;20042;-89
2022/08/19 01:13:05;;;;;;;1.60;1.50;;;;;;;-145.06;100.00;60892.56;4832650;28;20030;-88
2022/08/19 01:15:48;;;;;;;1.85;1.50;;;;;;;-145.06;100.00;60892.56;4830215;28;20257;-88
2022/08/19 01:18:29;;;;;;;1.48;1.38;;;;;;;-145.06;100.00;60892.56;4834576;28;20068;-87
2022/08/19 01:21:10;;;;;;;;;;;;;;;-145.06;100.00;60892.56;4834129;28;20030;-88
2022/08/19 01:23:50;;;;;;;1.27;1.17;;;;;;;-145.06;100.00;60892.56;4827914;28;19997;-88
2022/08/19 01:26:30;;;;;;;1.52;1.27;;;;;;;-145.06;100.00;60892.56;4834681;28;20678;-87
2022/08/19 01:29:10;;;;;;;1.90;1.25;;;;;;;-145.06;100.00;60892.56;4835945;28;20037;-89
2022/08/19 01:31:51;;;;;;;1.30;1.20;;;;;;;-145.06;100.00;60892.56;4836480;28;20037;-89
2022/08/19 01:34:33;;;;;;;1.50;1.40;;;;;;;-145.06;100.00;60892.56;4852087;28;20029;-89
2022/08/19 01:37:14;;;;;;;1.73;1.48;;;;;;;-145.06;100.00;60892.56;4847582;28;20370;-88
2022/08/19 01:39:53;;;;;;;1.60;1.38;;;;;;;-145.06;100.00;60892.56;4828794;28;20022;-87
2022/08/19 01:42:32;;;;;;;1.45;1.35;;;;;;;-145.06;100.00;60892.56;4833234;28;20116;-89
2022/08/19 01:45:11;;;;;;;1.38;1.20;;;;;;;-145.06;100.00;60892.56;4830382;28;20496;-88
2022/08/19 01:47:52;;;;;;;1.83;1.65;;;;;;;-145.06;100.00;60892.56;4839369;28;20034;-88
2022/08/19 01:50:33;;;;;;;1.60;1.50;;;;;;;-145.06;100.00;60892.56;4824230;28;20038;-89
2022/08/19 01:53:12;;;;;;;1.77;1.67;;;;;;;-145.06;100.00;60892.56;4833596;28;20492;-89
2022/08/19 01:55:51;;;;;;;1.70;1.55;;;;;;;-145.06;100.00;60892.56;4828725;28;20033;-88
2022/08/19 01:58:41;;;;;;;2.15;1.85;;;;;;;-145.06;100.00;60892.56;4834507;28;20033;-88
2022/08/19 02:01:20;;;;;;;2.10;1.80;;;;;;;-145.06;100.00;60892.56;4828465;28;20132;-88
2022/08/19 02:04:00;;;;;;;1.77;1.67;;;;;;;-145.06;100.00;60892.56;4832103;28;20022;-88
2022/08/19 02:06:39;;;;;;;1.80;1.70;;;;;;;-145.06;100.00;60892.56;4838982;28;20045;-88
2022/08/19 02:09:18;;;;;;;2.20;2.00;;;;;;;-145.06;100.00;60892.56;4829925;28;20029;-89
2022/08/19 02:11:57;;;;;;;2.22;2.00;;;;;;;-145.06;100.00;60892.56;4833109;28;20037;-89
2022/08/19 02:14:37;;;;;;;2.22;1.90;;;;;;;-145.06;100.00;60892.56;4822095;28;20014;-87
2022/08/19 02:17:15;;;;;;;2.10;1.90;;;;;;;-145.06;100.00;60892.56;4834513;28;20038;-89
2022/08/19 02:19:58;;;;;;;2.40;2.20;;;;;;;-145.06;100.00;60892.56;4827088;28;20025;-89
2022/08/19 02:22:37;;;;;;;2.20;1.98;;;;;;;-145.06;100.00;60892.56;4828853;28;20369;-89
2022/08/19 02:25:16;;;;;;;2.35;2.10;;;;;;;-145.06;100.00;60892.56;4855420;28;20104;-88
2022/08/19 02:27:55;;;;;;;2.45;2.25;;;;;;;-145.06;100.00;60892.56;4840360;28;20038;-88
2022/08/19 02:30:34;;;;;;;2.80;2.50;;;;;;;-145.06;100.00;60892.56;4825921;28;20030;-89
2022/08/19 02:33:13;;;;;;;3.27;2.40;;;;;;;-145.06;100.00;60892.56;4859053;28;20041;-89
2022/08/19 02:35:53;;;;;;;2.40;2.10;;;;;;;-145.06;100.00;60892.56;4831932;28;20063;-89
2022/08/19 02:38:32;;;;;;;2.13;1.93;;;;;;;-145.06;100.00;60892.56;4830954;28;20033;-89
2022/08/19 02:41:18;;;;;;;2.38;2.17;;;;;;;-145.06;100.00;60892.56;4825356;28;20276;-89
2022/08/19 02:44:01;;;;;;;2.80;2.47;;;;;;;-145.06;100.00;60892.56;4856995;28;20373;-88
2022/08/19 02:46:40;;;;;;;2.28;2.08;;;;;;;-145.06;100.00;60892.56;4829578;28;20523;-88
2022/08/19 02:49:19;;;;;;;2.90;2.50;;;;;;;-145.06;100.00;60892.56;4837950;28;20663;-89
2022/08/19 02:51:58;;;;;;;2.50;2.30;;;;;;;-145.06;100.00;60892.56;4823566;28;20034;-87
2022/08/19 02:54:38;;;;;;;2.65;2.45;;;;;;;-145.06;100.00;60892.56;4825451;28;20030;-89
2022/08/19 02:57:17;;;;;;;2.88;2.50;;;;;;;-145.06;100.00;60892.56;4832383;28;20038;-88
2022/08/19 02:59:56;;;;;;;2.35;2.15;;;;;;;-145.06;100.00;60892.56;4828809;28;20495;-89
2022/08/19 03:02:35;;;;;;;2.43;2.23;;;;;;;-145.06;100.00;60892.56;4827702;28;20041;-88
2022/08/19 03:05:14;;;;;;;2.75;2.50;;;;;;;-145.06;100.00;60892.56;4833216;28;20017;-89
2022/08/19 03:07:53;;;;;;;2.40;2.20;;;;;;;-145.06;100.00;60892.56;4836353;28;20034;-89
2022/08/19 03:10:32;;;;;;;2.42;2.22;;;;;;;-145.06;100.00;60892.56;4828592;28;20265;-89
2022/08/19 03:13:14;;;;;;;2.25;2.05;;;;;;;-145.06;100.00;60892.56;4832264;28;20069;-88
2022/08/19 03:15:54;;;;;;;2.60;2.40;;;;;;;-145.06;100.00;60892.56;4832482;28;20361;-89
2022/08/19 03:18:33;;;;;;;2.70;2.35;;;;;;;-145.06;100.00;60892.56;4834202;28;20034;-88
2022/08/19 03:21:21;;;;;;;2.55;2.33;;;;;;;-145.06;100.00;60892.56;4854581;28;20373;-89
2022/08/19 03:24:06;;;;;;;2.30;2.10;;;;;;;-145.06;100.00;60892.56;4839102;28;20010;-89
2022/08/19 03:26:48;;;;;;;2.50;2.10;;;;;;;-145.06;100.00;60892.56;4829065;28;20519;-89
2022/08/19 03:29:29;;;;;;;3.88;2.47;;;;;;;-145.06;100.00;60892.56;4829104;28;20073;-88
2022/08/19 03:32:08;;;;;;;2.75;2.42;;;;;;;-145.06;100.00;60892.56;4831308;28;20046;-90
2022/08/19 03:34:47;;;;;;;3.10;2.60;;;;;;;-145.06;100.00;60892.56;4833454;28;20057;-89
2022/08/19 03:37:26;;;;;;;2.97;2.47;;;;;;;-145.06;100.00;60892.56;4829618;28;20452;-88
2022/08/19 03:40:05;;;;;;;2.47;2.08;;;;;;;-145.06;100.00;60892.56;4831191;28;20520;-88
2022/08/19 03:42:45;;;;;;;2.67;2.47;;;;;;;-145.06;100.00;60892.56;4821749;28;20037;-88
2022/08/19 03:45:24;;;;;;;;;;;;;;;-145.06;100.00;60892.56;4828938;28;20651;-88
2022/08/19 03:48:03;;;;;;;2.67;2.38;;;;;;;-145.06;100.00;60892.56;4830992;28;20004;-87
2022/08/19 03:50:43;;;;;;;2.63;2.35;;;;;;;-145.06;100.00;60892.56;4838884;28;20030;-89
2022/08/19 03:53:22;;;;;;;3.30;2.97;;;;;;;-145.06;100.00;60892.56;4832809;28;20030;-88
2022/08/19 03:56:01;;;;;;;3.60;2.92;;;;;;;-145.06;100.00;60892.56;4834423;28;20277;-88
2022/08/19 03:58:41;;;;;;;3.03;2.72;;;;;;;-145.06;100.00;60892.56;4857138;28;20033;-88
2022/08/19 04:01:22;;;;;;;4.00;3.40;;;;;;;-145.06;100.00;60892.56;4834863;28;20030;-88
2022/08/19 04:04:02;;;;;;;3.50;3.10;;;;;;;-145.06;100.00;60892.56;4830804;28;20026;-89
2022/08/19 04:06:43;;;;;;;3.85;3.40;;;;;;;-145.06;100.00;60892.56;4843702;28;20496;-89
2022/08/19 04:09:22;;;;;;;3.30;3.00;;;;;;;-145.06;100.00;60892.56;4835621;28;20033;-89
2022/08/19 04:12:04;;;;;;;3.38;3.08;;;;;;;-145.06;100.00;60892.56;4828903;28;20026;-88
2022/08/19 04:14:44;;;;;;;4.68;3.10;;;;;;;-145.06;100.00;60892.56;4836908;28;20041;-89
2022/08/19 04:17:23;;;;;;;4.13;3.38;;;;;;;-145.06;100.00;60892.56;4827759;28;20034;-88
2022/08/19 04:20:03;;;;;;;3.97;2.85;;;;;;;-145.06;100.00;60892.56;4841606;28;20037;-89
2022/08/19 04:22:42;;;;;;;3.10;2.80;;;;;;;-145.06;100.00;60892.56;4834169;28;20030;-88
2022/08/19 04:25:21;;;;;;;3.47;3.13;;;;;;;-145.06;100.00;60892.56;4826009;28;20034;-89
2022/08/19 04:28:01;;;;;;;3.60;3.28;;;;;;;-145.06;100.00;60892.56;4826736;28;20041;-89
2022/08/19 04:30:41;;;;;;;3.08;2.75;;;;;;;-145.06;100.00;60892.56;4827129;28;20372;-89
2022/08/19 04:33:23;;;;;;;3.15;2.85;;;;;;;-145.06;100.00;60892.56;4861178;28;20372;-88
2022/08/19 04:36:02;;;;;;;3.80;3.03;;;;;;;-145.06;100.00;60892.56;4836170;28;20029;-88
2022/08/19 04:38:41;;;;;;;3.13;2.83;;;;;;;-145.06;100.00;60892.56;4829870;28;20030;-89
2022/08/19 04:44:19;;;;;;;3.75;3.15;;;;;;;-145.06;100.00;60892.56;4836775;28;20033;-88
2022/08/19 04:46:58;;;;;;;3.95;3.15;;;;;;;-145.06;100.00;60892.56;4826743;28;20034;-89
2022/08/19 04:49:37;;;;;;;4.00;3.25;;;;;;;-145.06;100.00;60892.56;4829737;28;20033;-88
2022/08/19 04:52:16;;;;;;;3.65;3.17;;;;;;;-145.06;100.00;60892.56;4833204;28;20507;-88
2022/08/19 04:54:55;;;;;;;4.43;3.33;;;;;;;-145.06;100.00;60892.56;4828753;28;20038;-88
2022/08/19 04:57:35;;;;;;;3.30;3.00;;;;;;;-145.06;100.00;60892.56;4828982;28;20033;-88
2022/08/19 05:00:14;;;;;;;3.35;3.05;;;;;;;-145.06;100.00;60892.56;4849505;28;20033;-89
2022/08/19 05:02:53;;;;;;;5.15;4.28;;;;;;;-145.06;100.00;60892.56;4825286;28;20034;-89
2022/08/19 05:05:32;;;;;;;4.78;4.15;;;;;;;-145.06;100.00;60892.56;4829510;28;20037;-90
2022/08/19 05:08:13;;;;;;;5.63;4.93;;;;;;;-145.06;100.00;60892.56;4827070;28;20046;-89
2022/08/19 05:10:52;;;;;;;5.97;4.93;;;;;;;-145.06;100.00;60892.56;4831119;28;20369;-87
2022/08/19 05:13:32;;;;;;;5.82;4.57;;;;;;;-145.06;100.00;60892.56;4831536;28;20030;-89
2022/08/19 05:16:13;;;;;;;5.22;4.32;;;;;;;-145.06;100.00;60892.56;4835635;28;20049;-89
2022/08/19 05:24:48;;;;;;;5.95;4.78;;;;;;;-145.06;100.00;60892.56;4827297;28;20030;-88
2022/08/19 05:27:27;;;;;;;6.85;5.75;;;;;;;-145.06;100.00;60892.56;4852081;28;20026;-88
2022/08/19 05:30:07;;;;;;;6.17;5.20;;;;;;;-145.06;100.00;60892.56;4831401;28;20373;-89
2022/08/19 05:32:47;;;;;;;6.72;5.22;;;;;;;-145.06;100.00;60892.56;4828819;28;20057;-91
2022/08/19 05:35:26;;;;;;;7.22;6.07;;;;;;;-145.06;100.00;60892.56;4859389;28;20061;-88
2022/08/19 05:38:07;;;;;;;7.40;5.80;;;;;;;-145.06;100.00;60892.56;4866930;28;20037;-88
2022/08/19 05:40:46;;;;;;;7.40;5.68;;;;;;;-145.06;100.00;60892.56;4837678;28;20029;-89
2022/08/19 05:43:25;;;;;;;6.50;5.10;;;;;;;-145.06;100.00;60892.56;4832441;28;20034;-88
2022/08/19 05:46:06;;;;;;;7.25;5.38;;;;;;;-145.06;100.00;60892.56;4834168;28;20096;-89
2022/08/19 05:48:46;;;;;;;6.28;5.03;;;;;;;-145.06;100.00;60892.56;4825387;28;20033;-89
2022/08/19 05:51:25;;;;;;;9.00;5.55;;;;;;;-145.06;100.00;60892.56;4835002;28;20037;-89
2022/08/19 05:54:06;;;;;;;6.63;5.60;;;;;;;-145.06;100.00;60892.56;4830259;28;20018;-89
2022/08/19 05:56:47;;;;;;;6.97;5.35;;;;;;;-145.06;100.00;60892.56;4829330;28;20104;-88
2022/08/19 05:59:26;;;;;;;6.55;5.40;;;;;;;-145.06;100.00;60892.56;4833184;28;20448;-89
2022/08/19 06:02:06;;;;;;;8.50;6.13;;;;;;;-145.06;100.00;60892.56;4833806;28;20041;-88
2022/08/19 06:04:45;;;;;;;8.10;5.35;;;;;;;-145.06;100.00;60892.56;4828720;28;20033;-90
2022/08/19 06:07:24;;;;;;;9.10;6.22;;;;;;;-145.06;100.00;60892.56;4837463;28;20042;-88
2022/08/19 06:10:09;;;;;;;6.63;5.03;;;;;;;-145.06;100.00;60892.56;4831745;28;20029;-89
2022/08/19 06:12:48;;;;;;;7.72;5.93;;;;;;;-145.06;100.00;60892.56;4827487;28;20034;-89
2022/08/19 06:15:27;;;;;;;7.80;5.80;;;;;;;-145.06;100.00;60892.56;4833672;28;20026;-89
2022/08/19 06:18:06;;;;;;;8.38;5.93;;;;;;;-145.06;100.00;60892.56;4839945;28;20025;-88
2022/08/19 06:20:45;;;;;;;9.27;6.30;;;;;;;-145.06;100.00;60892.56;4833045;28;20073;-89
2022/08/19 06:23:25;;;;;;;9.95;6.70;;;;;;;-145.06;100.00;60892.56;4833808;28;20038;-90
2022/08/19 06:26:04;;;;;;;;;;;;;;;-145.06;100.00;60892.56;4835217;28;20073;-90
2022/08/19 06:28:46;;;;;;;9.55;6.38;;;;;;;-145.06;100.00;60892.56;4833196;28;19917;-89
2022/08/19 06:31:27;;;;;;;9.82;7.15;;;;;;;-145.06;100.00;60892.56;4833967;28;20065;-89
2022/08/19 06:34:06;;;;;;;9.88;6.88;;;;;;;-145.06;100.00;60892.56;4834480;28;20022;-88
2022/08/19 06:36:48;;;;;;;8.32;6.80;;;;;;;-145.06;100.00;60892.56;4830835;28;20513;-89
2022/08/19 06:39:31;;;;;;;9.70;7.03;;;;;;;-145.06;100.00;60892.56;4832082;28;20069;-89
2022/08/19 06:42:15;;;;;;;7.75;5.93;;;;;;;-145.06;100.00;60892.56;4842199;28;20060;-89
2022/08/19 06:44:55;;;;;;;11.25;8.00;;;;;;;-145.06;100.00;60892.56;4830298;28;20053;-89
2022/08/19 06:47:34;;;;;;;11.95;8.13;;;;;;;-145.06;100.00;60892.56;4826105;28;20030;-89
2022/08/19 06:50:13;;;;;;;11.23;8.13;;;;;;;-145.06;100.00;60892.56;4840782;28;20029;-89
2022/08/19 06:52:53;;;;;;;10.40;7.35;;;;;;;-145.06;100.00;60892.56;4833845;28;20034;-88
2022/08/19 06:55:32;;;;;;;8.85;6.65;;;;;;;-145.06;100.00;60892.56;4826887;28;20034;-89
2022/08/19 06:58:11;;;;;;;9.05;7.18;;;;;;;-145.06;100.00;60892.56;4831581;28;20034;-89
2022/08/19 07:00:51;;;;;;;10.93;7.50;;;;;;;-145.06;100.00;60892.56;4828849;28;20041;-89
2022/08/19 07:03:32;;;;;;;7.72;6.32;;;;;;;-145.06;100.00;60892.56;4833025;28;20276;-89
2022/08/19 07:06:17;;;;;;;7.85;6.15;;;;;;;-145.06;100.00;60892.56;4833433;28;20045;-89
2022/08/19 07:08:57;;;;;;;9.80;7.28;;;;;;;-145.06;100.00;60892.56;4833438;28;20034;-89
2022/08/19 07:11:36;;;;;;;9.18;6.68;;;;;;;-145.06;100.00;60892.56;4835504;28;20484;-89
2022/08/19 07:14:18;;;;;;;8.97;6.77;;;;;;;-145.06;100.00;60892.56;4828956;28;20038;-89
2022/08/19 07:16:57;;;;;;;9.18;6.95;;;;;;;-145.06;100.00;60892.56;4836243;28;20277;-89
2022/08/19 07:19:37;;;;;;;8.60;6.28;;;;;;;-145.06;100.00;60892.56;4827047;28;20025;-91
2022/08/19 07:22:17;;;;;;;8.23;6.25;;;;;;;-145.06;100.00;60892.56;4835055;28;20034;-89
2022/08/19 07:24:56;;;;;;;7.78;6.00;;;;;;;-145.06;100.00;60892.56;4835786;28;20476;-89
2022/08/19 07:27:35;;;;;;;6.30;4.83;;;;;;;-145.06;100.00;60892.56;4837896;28;20389;-89
2022/08/19 07:30:14;;;;;;;8.33;5.10;;;;;;;-145.06;100.00;60892.56;4835932;28;20025;-89
2022/08/19 07:32:53;;;;;;;6.15;4.70;;;;;;;-145.06;100.00;60892.56;4837356;28;20627;-89
2022/08/19 07:35:32;;;;;;;6.68;4.85;;;;;;;-145.06;100.00;60892.56;4831499;28;20034;-88
2022/08/19 07:38:11;;;;;;;4.90;4.05;;;;;;;-145.06;100.00;60892.56;4837449;28;20113;-90
2022/08/19 07:40:51;;;;;;;5.60;3.72;;;;;;;-145.06;100.00;60892.56;4830950;28;20037;-89
2022/08/19 07:43:30;;;;;;;4.65;3.67;;;;;;;-145.06;100.00;60892.56;4824358;28;20125;-89
2022/08/19 07:46:10;;;;;;;4.03;3.25;;;;;;;-145.06;100.00;60892.56;4825966;28;20499;-90
2022/08/19 07:48:51;;;;;;;4.47;3.42;;;;;;;-145.06;100.00;60892.56;4836304;28;20042;-90
2022/08/19 07:51:30;;;;;;;3.58;3.00;;;;;;;-145.06;100.00;60892.56;4834005;28;20752;-88
2022/08/19 07:54:11;;;;;;;3.05;2.75;;;;;;;-145.06;100.00;60892.56;4838993;28;20471;-89
2022/08/19 07:56:50;;;;;;;4.18;2.90;;;;;;;-145.06;100.00;60892.56;4837304;28;20113;-90
2022/08/19 07:59:29;;;;;;;4.43;2.88;;;;;;;-145.06;100.00;60892.56;4823292;28;20042;-88
2022/08/19 08:02:08;;;;;;;4.28;3.47;;;;;;;-145.06;100.00;60892.56;4839190;28;20029;-89
2022/08/19 08:10:43;;;;;;;2.80;2.50;;;;;;;-145.06;100.00;60892.56;4834364;28;20057;-88
2022/08/19 08:13:23;;;;;;;3.25;2.80;;;;;;;-145.06;100.00;60892.56;4836103;28;20030;-89
2022/08/19 08:16:02;;;;;;;3.50;2.78;;;;;;;-145.06;100.00;60892.56;4832118;28;20062;-88
2022/08/19 08:18:43;;;;;;;3.25;2.90;;;;;;;-145.06;100.00;60892.56;4829434;28;20432;-88
2022/08/19 08:21:21;;;;;;;3.90;3.20;;;;;;;-145.06;100.00;60892.56;4839265;28;20041;-89
2022/08/19 08:24:00;;;;;;;3.70;3.30;;;;;;;-145.06;100.00;60892.56;4835672;28;20029;-89
2022/08/19 08:26:40;;;;;;;3.35;2.92;;;;;;;-145.06;100.00;60892.56;4829343;28;20121;-88
2022/08/19 08:29:19;;;;;;;3.85;3.30;;;;;;;-145.06;100.00;60892.56;4825007;28;20034;-89
2022/08/19 08:31:58;;;;;;;5.60;3.35;;;;;;;-145.06;100.00;60892.56;4835600;28;20042;-90
2022/08/19 08:34:38;;;;;;;3.47;3.00;;;;;;;-145.06;100.00;60892.56;4830345;28;20026;-89
2022/08/19 08:37:17;;;;;;;3.40;2.95;;;;;;;-145.06;100.00;60892.56;4844617;28;20120;-88
2022/08/19 08:39:56;;;;;;;4.18;3.17;;;;;;;-145.06;100.00;60892.56;4835608;28;20640;-88
2022/08/19 08:42:43;;;;;;;4.07;3.38;;;;;;;-145.06;100.00;60892.56;4826747;28;20029;-88
2022/08/19 08:45:24;;;;;;;3.47;2.95;;;;;;;-145.06;100.00;60892.56;4835294;28;20034;-88
2022/08/19 08:48:20;;;;;;;3.97;3.17;;;;;;;-145.06;100.00;60892.56;4829372;28;20034;-88
2022/08/19 08:51:03;;;;;;;3.70;3.33;;;;;;;-145.06;100.00;60892.56;4861203;28;20109;-89
2022/08/19 08:53:46;;;;;;;4.65;3.97;;;;;;;-145.06;100.00;60892.56;4834438;28;20384;-89
2022/08/19 08:56:25;;;;;;;4.03;3.25;;;;;;;-145.06;100.00;60892.56;4834649;28;20030;-89
2022/08/19 08:59:32;;;;;;;5.47;4.10;;;;;;;-145.06;100.00;60892.56;4835275;28;20412;-88
2022/08/19 09:02:11;;;;;;;3.92;3.20;;;;;;;-145.06;100.00;60892.56;4832731;28;20091;-89
2022/08/19 09:04:50;;;;;;;5.18;3.45;;;;;;;-145.06;100.00;60892.56;4839097;28;20022;-90
2022/08/19 09:07:49;;;;;;;4.85;3.97;;;;;;;-145.06;100.00;60892.56;4829791;28;20037;-88
2022/08/19 09:10:40;;;;;;;4.55;3.70;;;;;;;-145.06;100.00;60892.56;4836684;28;20061;-89
2022/08/19 09:13:49;;;;;;;3.70;3.28;;;;;;;-145.06;100.00;60892.56;4834529;28;20125;-88
2022/08/19 09:16:29;;;;;;;4.05;3.58;;;;;;;-145.06;100.00;60892.56;4821569;28;20049;-89
2022/08/19 09:19:10;;;;;;;5.22;4.40;;;;;;;-145.06;100.00;60892.56;4857600;28;20487;-89
2022/08/19 09:21:50;;;;;;;4.43;4.03;;;;;;;-145.06;100.00;60892.56;4842911;28;20042;-89
2022/08/19 09:24:29;;;;;;;5.28;4.43;;;;;;;-145.06;100.00;60892.56;4832485;28;20199;-89
2022/08/19 09:27:08;;;;;;;4.47;4.03;;;;;;;-145.06;100.00;60892.56;4833202;28;20065;-89
2022/08/19 09:29:48;;;;;;;5.35;4.50;;;;;;;-145.06;100.00;60892.56;4835047;28;20034;-89
2022/08/19 09:32:27;;;;;;;5.95;4.72;;;;;;;-145.06;100.00;60892.56;4835969;28;20381;-88
2022/08/19 09:35:07;;;;;;;5.13;4.63;;;;;;;-145.06;100.00;60892.56;4833805;28;20108;-90
2022/08/19 09:37:46;;;;;;;5.93;5.03;;;;;;;-145.06;100.00;60892.56;4828893;28;20038;-89
2022/08/19 09:40:26;;;;;;;4.18;3.75;;;;;;;-145.06;100.00;60892.56;4832424;28;20046;-89
2022/08/19 09:43:07;;;;;;;4.65;4.00;;;;;;;-145.06;100.00;60892.56;4833952;28;20061;-90
2022/08/19 09:45:47;;;;;;;4.43;3.70;;;;;;;-145.06;100.00;60892.56;4840191;28;20025;-90
2022/08/19 09:48:27;;;;;;;4.10;3.70;;;;;;;-145.06;100.00;60892.56;4831726;28;20069;-91
2022/08/19 09:51:07;;;;;;;;;;;;;;;-145.06;100.00;60892.56;4836358;28;20026;-89
2022/08/19 09:53:51;;;;;;;4.28;3.47;;;;;;;-145.06;100.00;60892.56;4836952;28;19913;-89
2022/08/19 09:56:31;;;;;;;4.70;4.20;;;;;;;-145.06;100.00;60892.56;4828036;28;20415;-89
2022/08/19 09:59:11;;;;;;;4.40;4.00;;;;;;;-145.06;100.00;60892.56;4835308;28;20030;-90
2022/08/19 10:01:51;;;;;;;5.88;5.13;;;;;;;-145.06;100.00;60892.56;4834851;28;20038;-89
2022/08/19 10:07:48;;;;;;;5.18;4.68;;;;;;;-145.06;100.00;60892.56;4817996;28;19918;-88
2022/08/19 10:10:27;;;;;;;4.68;4.28;;;;;;;-145.06;100.00;60892.56;4791854;28;20039;-89
2022/08/19 10:13:06;;;;;;;4.90;4.40;;;;;;;-145.06;100.00;60892.56;4839937;28;20046;-88
2022/08/19 10:15:45;;;;;;;4.95;4.45;;;;;;;-145.06;100.00;60892.56;4827845;28;20033;-89
2022/08/19 10:18:25;;;;;;;5.30;4.55;;;;;;;-145.06;100.00;60892.56;4833676;28;20068;-90
2022/08/19 10:21:08;;;;;;;;;;;;;;;-145.06;100.00;60892.56;4833950;28;20057;-90
2022/08/19 10:23:50;;;;;;;4.82;4.35;;;;;;;-145.06;100.00;60892.56;4834209;28;19909;-89
2022/08/19 10:26:33;;;;;;;5.93;4.90;;;;;;;-145.06;100.00;60892.56;4834287;28;20026;-89
2022/08/19 10:29:12;;;;;;;5.07;4.57;;;;;;;-145.06;100.00;60892.56;4840618;28;20033;-89
2022/08/19 10:31:51;;;;;;;4.85;4.15;;;;;;;-145.06;100.00;60892.56;4833496;28;20038;-89
2022/08/19 10:34:30;;;;;;;5.18;4.50;;;;;;;-145.06;100.00;60892.56;4832999;28;20038;-89
2022/08/19 10:37:09;;;;;;;6.65;5.53;;;;;;;-145.06;100.00;60892.56;4839717;28;20064;-90
2022/08/19 10:39:49;;;;;;;6.13;5.50;;;;;;;-145.06;100.00;60892.56;4832701;28;20069;-89
2022/08/19 10:42:28;;;;;;;4.93;4.43;;;;;;;-145.06;100.00;60892.56;4828855;28;20476;-88
2022/08/19 10:45:09;;;;;;;4.90;4.13;;;;;;;-145.06;100.00;60892.56;4824255;28;20026;-88
2022/08/19 10:47:48;;;;;;;4.72;3.90;;;;;;;-145.06;100.00;60892.56;4832144;28;20480;-88
2022/08/19 10:53:25;;;;;;;4.78;4.35;;;;;;;-145.06;100.00;60892.56;4833068;28;20041;-89
2022/08/19 10:59:04;;;;;;;4.53;3.88;;;;;;;-145.06;100.00;60892.56;4833835;28;20491;-89
2022/08/19 11:01:45;;;;;;;4.97;4.43;;;;;;;-145.06;100.00;60892.56;4830317;28;20057;-88
2022/08/19 11:04:25;;;;;;;5.57;4.97;;;;;;;-145.06;100.00;60892.56;4841407;28;20029;-89
2022/08/19 11:07:05;;;;;;;4.55;4.15;;;;;;;-145.06;100.00;60892.56;4835533;28;20117;-88
2022/08/19 11:09:46;;;;;;;4.15;3.75;;;;;;;-145.06;100.00;60892.56;4830684;28;20046;-88
2022/08/19 11:12:27;;;;;;;5.38;4.05;;;;;;;-145.06;100.00;60892.56;4838270;28;20113;-89
2022/08/19 11:15:10;;;;;;;4.85;4.20;;;;;;;-145.06;100.00;60892.56;4831706;28;20109;-88
2022/08/19 11:17:54;;;;;;;4.68;4.13;;;;;;;-145.06;100.00;60892.56;4863987;28;20034;-88
2022/08/19 11:20:33;;;;;;;5.25;4.60;;;;;;;-145.06;100.00;60892.56;4830328;28;20025;-87
2022/08/19 11:23:12;;;;;;;6.20;5.10;;;;;;;-145.06;100.00;60892.56;4837559;28;20030;-88
2022/08/19 11:25:51;;;;;;;5.93;4.55;;;;;;;-145.06;100.00;60892.56;4828458;28;20057;-87
2022/08/19 11:28:30;;;;;;;6.30;4.97;;;;;;;-145.06;100.00;60892.56;4830691;28;20022;-87
2022/08/19 11:31:14;;;;;;;5.20;4.70;;;;;;;-145.06;100.00;60892.56;4836685;28;20164;-88
2022/08/19 11:33:55;;;;;;;4.68;3.80;;;;;;;-145.06;100.00;60892.56;4835587;28;20801;-88
2022/08/19 11:36:38;;;;;;;3.92;3.47;;;;;;;-145.06;100.00;60892.56;4813406;28;20033;-88
2022/08/19 11:39:21;;;;;;;4.15;3.75;;;;;;;-145.06;100.00;60892.56;4831553;28;20022;-88
2022/08/19 11:44:59;;;;;;;4.75;3.78;;;;;;;-145.06;100.00;60892.56;4832911;28;20022;-89
2022/08/19 11:47:38;;;;;;;3.53;3.22;;;;;;;-145.06;100.00;60892.56;4842283;28;20069;-89
2022/08/19 11:50:18;;;;;;;;;;;;;;;-145.06;100.00;60892.56;4833745;28;20030;-88
2022/08/19 11:52:57;;;;;;;3.17;2.88;;;;;;;-145.06;100.00;60892.56;4832493;28;19913;-89
2022/08/19 11:55:39;;;;;;;3.97;3.10;;;;;;;-145.06;100.00;60892.56;4838101;28;20029;-88
2022/08/19 11:58:18;;;;;;;3.13;2.83;;;;;;;-145.06;100.00;60892.56;4834347;28;20029;-89
2022/08/19 12:00:57;;;;;;;3.60;3.30;;;;;;;-145.06;100.00;60892.56;4836475;28;20362;-88
2022/08/19 12:03:37;;;;;;;3.80;3.33;;;;;;;-145.06;100.00;60892.56;4834088;28;20022;-88
2022/08/19 12:06:21;;;;;;;3.22;2.75;;;;;;;-145.06;100.00;60892.56;4836132;28;20029;-89
2022/08/19 12:09:04;;;;;;;3.83;3.42;;;;;;;-145.06;100.00;60892.56;4832049;28;20026;-88
2022/08/19 12:11:43;;;;;;;4.78;4.07;;;;;;;-145.06;100.00;60892.56;4838224;28;20026;-88
2022/08/19 12:14:23;;;;;;;3.58;3.28;;;;;;;-145.06;100.00;60892.56;4839530;28;20018;-89
2022/08/19 12:17:04;;;;;;;4.03;3.17;;;;;;;-145.06;100.00;60892.56;4838087;28;20667;-88
2022/08/19 12:19:44;;;;;;;3.75;3.42;;;;;;;-145.06;100.00;60892.56;4831058;28;20552;-88
2022/08/19 12:22:23;;;;;;;3.35;3.00;;;;;;;-145.06;100.00;60892.56;4836909;28;20030;-88
2022/08/19 12:25:03;;;;;;;3.42;2.97;;;;;;;-145.06;100.00;60892.56;4836221;28;20108;-88
2022/08/19 12:27:42;;;;;;;3.25;2.72;;;;;;;-145.06;100.00;60892.56;4836673;28;20649;-88
2022/08/19 12:30:21;;;;;;;;;;;;;;;-145.06;100.00;60892.56;4839530;28;20370;-88
2022/08/19 12:33:00;;;;;;;3.28;2.97;;;;;;;-145.06;100.00;60892.56;4846425;28;19917;-88
2022/08/19 12:35:41;;;;;;;3.35;3.05;;;;;;;-145.06;100.00;60892.56;4829262;28;20021;-89
2022/08/19 12:38:24;;;;;;;3.08;2.60;;;;;;;-145.06;100.00;60892.56;4835093;28;20026;-89